Time;durP1;ratioP1;P1;durP2;ratioP2;P2;SDS_P1;SDS_P2;PMS_P1;PMS_P2;Temp;Humidity;BMP_temperature;BMP_pressure;BME280_temperature;BME280_humidity;BME280_pressure;Samples;Min_cycle;Max_cycle;Signal;HPM_P1;HPM_P2
2023/06/16 00:01:40;;;;;;;10.15;3.17;;;;;;;18.61;54.67;101533.78;4981003;28;20031;-73
2023/06/16 00:04:06;;;;;;;5.07;3.13;;;;;;;18.59;54.57;101527.94;4980054;28;20050;-73
2023/06/16 00:06:31;;;;;;;6.50;3.40;;;;;;;18.55;54.62;101523.22;4985862;28;20038;-73
2023/06/16 00:09:03;;;;;;;6.45;3.38;;;;;;;18.52;54.84;101523.63;4983120;28;20038;-73
2023/06/16 00:11:29;;;;;;;5.57;3.00;;;;;;;18.44;55.14;101525.41;4981838;28;20049;-73
2023/06/16 00:13:59;;;;;;;5.93;3.30;;;;;;;18.40;55.71;101523.31;4985277;28;20061;-72
2023/06/16 00:16:26;;;;;;;4.95;3.00;;;;;;;18.33;56.40;101523.28;4981471;28;20109;-73
2023/06/16 00:18:53;;;;;;;7.30;3.35;;;;;;;18.31;56.58;101527.09;4977647;28;20576;-72
2023/06/16 00:21:25;;;;;;;8.32;3.45;;;;;;;18.24;56.95;101524.41;5005869;28;20038;-73
2023/06/16 00:23:51;;;;;;;9.00;4.47;;;;;;;18.19;57.01;101518.91;4996642;28;20042;-73
2023/06/16 00:26:17;;;;;;;7.00;3.33;;;;;;;18.15;57.04;101525.56;5006975;28;20440;-73
2023/06/16 00:28:43;;;;;;;5.38;3.38;;;;;;;18.12;57.23;101524.13;5002249;28;20053;-73
2023/06/16 00:31:09;;;;;;;7.65;3.45;;;;;;;18.09;57.45;101525.28;5000989;28;20100;-72
2023/06/16 00:33:34;;;;;;;5.93;3.42;;;;;;;18.06;57.37;101524.84;4998608;28;20058;-73
2023/06/16 00:36:00;;;;;;;5.47;3.20;;;;;;;18.01;57.69;101524.63;4981639;28;20057;-72
2023/06/16 00:38:27;;;;;;;6.53;3.67;;;;;;;17.94;57.84;101521.13;4981924;28;22385;-73
2023/06/16 00:40:52;;;;;;;5.88;3.17;;;;;;;17.90;57.94;101528.56;4977423;28;20093;-73
2023/06/16 00:43:18;;;;;;;6.28;3.78;;;;;;;17.87;58.08;101528.91;4984419;28;20041;-73
2023/06/16 00:45:44;;;;;;;5.57;3.50;;;;;;;17.83;58.53;101527.63;4984438;28;20044;-73
2023/06/16 00:48:10;;;;;;;5.68;3.20;;;;;;;17.78;58.79;101525.59;5000132;28;20532;-73
2023/06/16 00:50:36;;;;;;;7.20;3.65;;;;;;;17.73;59.20;101521.91;4982443;28;20041;-72
2023/06/16 00:53:02;;;;;;;8.05;3.92;;;;;;;17.66;59.39;101521.81;4981612;28;20121;-73
2023/06/16 00:55:28;;;;;;;7.25;3.90;;;;;;;17.58;59.69;101524.56;4981574;28;20125;-72
2023/06/16 00:57:54;;;;;;;8.73;3.65;;;;;;;17.50;60.12;101525.47;4980786;28;20044;-72
2023/06/16 01:00:21;;;;;;;6.97;4.13;;;;;;;17.46;60.32;101524.19;5016706;28;20134;-72
2023/06/16 01:02:46;;;;;;;8.02;4.13;;;;;;;17.43;60.24;101521.97;5002082;28;20065;-72
2023/06/16 01:05:19;;;;;;;9.02;4.00;;;;;;;17.39;60.43;101516.28;4967157;28;20042;-73
2023/06/16 01:08:03;;;;;;;7.78;3.58;;;;;;;17.37;60.27;101525.31;4978690;28;20114;-72
2023/06/16 01:10:37;;;;;;;7.20;4.07;;;;;;;17.34;59.99;101523.84;4963108;28;20614;-72
2023/06/16 01:13:07;;;;;;;11.88;3.55;;;;;;;17.30;60.52;101514.75;4984447;28;20030;-74
2023/06/16 01:15:34;;;;;;;5.85;3.92;;;;;;;17.27;60.60;101522.97;5000581;28;20036;-72
2023/06/16 01:18:01;;;;;;;8.85;3.85;;;;;;;17.24;60.63;101524.16;5002177;28;20032;-71
2023/06/16 01:20:57;;;;;;;8.55;3.72;;;;;;;17.19;60.91;101525.69;5001964;28;20401;-72
2023/06/16 01:23:35;;;;;;;8.35;4.00;;;;;;;17.12;61.39;101520.34;4979171;28;20417;-73
2023/06/16 01:26:06;;;;;;;8.75;3.72;;;;;;;17.00;62.26;101519.19;5004038;28;20037;-73
2023/06/16 01:28:34;;;;;;;8.25;4.05;;;;;;;16.94;62.41;101520.72;4997035;28;20420;-72
2023/06/16 01:31:01;;;;;;;8.90;3.60;;;;;;;16.91;62.55;101524.53;4999200;28;20033;-72
2023/06/16 01:33:31;;;;;;;7.45;4.00;;;;;;;16.88;62.62;101524.88;5003169;28;20045;-73
2023/06/16 01:35:58;;;;;;;5.20;4.00;;;;;;;16.83;62.95;101523.78;5002453;28;20034;-72
2023/06/16 01:38:25;;;;;;;10.75;4.10;;;;;;;16.79;63.05;101525.13;4998647;28;20049;-73
2023/06/16 01:40:52;;;;;;;6.90;4.20;;;;;;;16.73;63.39;101522.22;4982170;28;21152;-72
2023/06/16 01:43:19;;;;;;;6.32;4.05;;;;;;;16.69;63.57;101530.63;4985275;28;20117;-73
2023/06/16 01:45:46;;;;;;;6.75;3.70;;;;;;;16.67;63.41;101528.19;4994468;28;20037;-72
2023/06/16 01:48:13;;;;;;;8.75;3.65;;;;;;;16.58;64.14;101517.97;5011619;28;20030;-73
2023/06/16 01:50:39;;;;;;;8.32;4.00;;;;;;;16.45;64.80;101523.81;4993145;28;20038;-73
2023/06/16 01:53:04;;;;;;;8.00;3.63;;;;;;;16.27;65.71;101518.88;4997824;28;20393;-73
2023/06/16 01:55:31;;;;;;;5.85;3.85;;;;;;;16.19;65.82;101517.13;5000478;28;20033;-73
2023/06/16 01:57:57;;;;;;;5.93;3.58;;;;;;;16.17;65.86;101523.53;4996494;28;20030;-72
2023/06/16 02:00:27;;;;;;;7.22;4.25;;;;;;;16.09;66.13;101520.00;4995352;28;20042;-72
2023/06/16 02:02:59;;;;;;;6.88;4.55;;;;;;;16.01;66.75;101525.28;4984971;28;20049;-72
2023/06/16 02:05:26;;;;;;;;;;;;;;;15.99;66.64;101523.81;4980355;28;20471;-72
2023/06/16 02:07:55;;;;;;;6.53;3.95;;;;;;;16.01;66.51;101514.81;4982591;28;20064;-72
2023/06/16 02:10:21;;;;;;;8.80;4.20;;;;;;;16.02;66.40;101521.66;4984201;28;20100;-72
2023/06/16 02:12:49;;;;;;;9.40;4.35;;;;;;;16.02;66.43;101521.66;5003136;28;20037;-72
2023/06/16 02:15:20;;;;;;;7.05;4.38;;;;;;;16.04;66.37;101517.06;4995255;28;20100;-72
2023/06/16 02:17:47;;;;;;;7.43;4.18;;;;;;;16.04;66.17;101514.47;4994962;28;20084;-73
2023/06/16 02:20:13;;;;;;;8.27;4.45;;;;;;;16.03;66.24;101519.84;5002807;28;20057;-72
2023/06/16 02:22:39;;;;;;;10.82;4.75;;;;;;;16.01;66.20;101520.06;5003657;28;20172;-72
2023/06/16 02:25:05;;;;;;;13.35;3.97;;;;;;;15.99;66.21;101519.38;5000467;28;20066;-73
2023/06/16 02:27:31;;;;;;;10.57;4.68;;;;;;;15.99;66.14;101521.19;5001655;28;20599;-72
2023/06/16 02:29:56;;;;;;;6.35;3.78;;;;;;;15.97;66.14;101516.13;5001538;28;20038;-72
2023/06/16 02:32:22;;;;;;;7.35;3.88;;;;;;;15.96;66.60;101510.09;4986492;28;20034;-72
2023/06/16 02:34:48;;;;;;;7.82;4.22;;;;;;;15.94;66.61;101516.50;4986048;28;20046;-72
2023/06/16 02:37:14;;;;;;;12.98;4.03;;;;;;;15.92;66.69;101523.72;4977747;28;20038;-72
2023/06/16 02:39:40;;;;;;;7.22;3.85;;;;;;;15.86;67.05;101522.59;4979685;28;20046;-72
2023/06/16 02:42:07;;;;;;;6.82;3.97;;;;;;;15.81;67.41;101524.09;4982052;28;20023;-72
2023/06/16 02:44:33;;;;;;;9.27;4.60;;;;;;;15.76;67.69;101520.22;4964572;28;20065;-72
2023/06/16 02:47:00;;;;;;;7.53;4.28;;;;;;;15.74;67.73;101519.56;4965191;28;20042;-72
2023/06/16 02:49:27;;;;;;;8.90;4.95;;;;;;;15.72;67.90;101516.25;4986927;28;20054;-72
2023/06/16 02:51:55;;;;;;;7.40;4.05;;;;;;;15.68;68.04;101520.22;4970479;28;20472;-73
2023/06/16 02:54:20;;;;;;;9.57;3.85;;;;;;;15.63;68.29;101514.69;4995893;28;20118;-72
2023/06/16 02:56:46;;;;;;;7.63;4.25;;;;;;;15.52;69.06;101517.69;5005210;28;20029;-72
2023/06/16 02:59:12;;;;;;;8.43;4.53;;;;;;;15.30;69.92;101514.03;5003953;28;20049;-72
2023/06/16 03:01:38;;;;;;;8.23;4.35;;;;;;;15.19;70.32;101513.41;5004979;28;20432;-72
2023/06/16 03:04:20;;;;;;;10.50;4.00;;;;;;;15.13;70.49;101523.75;5005277;28;20150;-72
2023/06/16 03:06:57;;;;;;;7.82;4.13;;;;;;;15.13;70.39;101516.72;5002697;28;20100;-73
2023/06/16 03:09:29;;;;;;;8.18;4.20;;;;;;;15.15;70.25;101513.94;4989683;28;20066;-72
2023/06/16 03:11:55;;;;;;;6.88;4.15;;;;;;;15.16;70.55;101516.38;4984241;28;20065;-72
2023/06/16 03:14:21;;;;;;;7.43;3.65;;;;;;;15.15;70.62;101513.94;4995803;28;20041;-72
2023/06/16 03:16:51;;;;;;;10.38;4.28;;;;;;;15.17;70.51;101512.78;5019246;28;20550;-72
2023/06/16 03:19:18;;;;;;;9.43;4.68;;;;;;;15.18;70.42;101517.03;4998176;28;20097;-72
2023/06/16 03:21:44;;;;;;;6.95;4.03;;;;;;;15.19;70.27;101518.63;4986224;28;20030;-72
2023/06/16 03:24:13;;;;;;;7.32;4.25;;;;;;;15.18;70.55;101522.25;4994333;28;20377;-72
2023/06/16 03:26:39;;;;;;;12.63;4.88;;;;;;;15.16;70.96;101524.22;4999464;28;20523;-72
2023/06/16 03:29:17;;;;;;;8.45;4.63;;;;;;;15.14;71.13;101520.97;5019882;28;20060;-72
2023/06/16 03:31:44;;;;;;;11.18;4.72;;;;;;;15.13;71.20;101524.53;5006386;28;20055;-72
2023/06/16 03:34:12;;;;;;;9.82;4.57;;;;;;;15.13;71.03;101527.16;4994081;28;20042;-72
2023/06/16 03:36:40;;;;;;;7.50;4.70;;;;;;;15.13;70.92;101526.34;4982925;28;20031;-72
2023/06/16 03:39:06;;;;;;;8.20;4.47;;;;;;;15.10;70.92;101526.69;4985796;28;20050;-72
2023/06/16 03:41:33;;;;;;;7.90;4.38;;;;;;;15.05;71.11;101528.97;4984425;28;20027;-72
2023/06/16 03:43:59;;;;;;;8.35;4.30;;;;;;;15.03;71.22;101517.88;4982383;28;20062;-72
2023/06/16 03:46:24;;;;;;;9.10;4.47;;;;;;;14.99;71.29;101518.22;4982767;28;20416;-72
2023/06/16 03:48:50;;;;;;;9.98;4.47;;;;;;;14.98;71.48;101526.22;4981457;28;20398;-72
2023/06/16 03:51:16;;;;;;;6.97;4.45;;;;;;;14.97;71.33;101519.38;4984799;28;20043;-72
2023/06/16 03:53:42;;;;;;;8.30;4.30;;;;;;;14.87;72.25;101524.78;4985274;28;20074;-71
2023/06/16 03:56:08;;;;;;;6.53;4.32;;;;;;;14.74;72.96;101529.69;4991497;28;20037;-71
2023/06/16 03:58:34;;;;;;;12.32;4.88;;;;;;;14.49;74.16;101523.66;4999072;28;20039;-72
2023/06/16 04:00:59;;;;;;;13.02;5.25;;;;;;;14.43;74.47;101527.75;4999480;28;20473;-72
2023/06/16 04:03:26;;;;;;;8.40;4.20;;;;;;;14.33;74.63;101525.28;4985995;28;20555;-73
2023/06/16 04:05:53;;;;;;;7.07;3.83;;;;;;;14.35;74.76;101538.16;5003145;28;20033;-72
2023/06/16 04:08:20;;;;;;;8.40;4.70;;;;;;;14.39;74.99;101529.03;5002720;28;20037;-72
2023/06/16 04:10:46;;;;;;;8.55;4.30;;;;;;;14.46;75.00;101530.00;5003982;28;21007;-72
2023/06/16 04:13:12;;;;;;;9.35;4.55;;;;;;;14.54;74.68;101529.19;5003332;28;20037;-72
2023/06/16 04:15:40;;;;;;;8.27;4.53;;;;;;;14.60;74.23;101526.78;5005260;28;20037;-72
2023/06/16 04:18:06;;;;;;;11.38;5.10;;;;;;;14.68;74.10;101530.38;5003170;28;20049;-72
2023/06/16 04:20:31;;;;;;;8.95;4.57;;;;;;;14.73;74.07;101530.66;5000263;28;20046;-72
2023/06/16 04:22:57;;;;;;;8.50;4.50;;;;;;;14.75;74.39;101536.56;4970702;28;20027;-72
2023/06/16 04:25:23;;;;;;;8.38;4.18;;;;;;;14.78;74.12;101531.78;4998814;28;20169;-72
2023/06/16 04:27:49;;;;;;;8.32;4.00;;;;;;;14.82;74.17;101534.91;4987036;28;20034;-71
2023/06/16 04:30:22;;;;;;;9.43;4.63;;;;;;;14.87;74.37;101539.63;4990573;28;20057;-72
2023/06/16 04:32:49;;;;;;;7.07;4.10;;;;;;;14.89;74.54;101542.88;5002813;28;20068;-72
2023/06/16 04:35:16;;;;;;;11.27;4.95;;;;;;;14.86;75.02;101538.81;5002226;28;20602;-72
2023/06/16 04:37:43;;;;;;;7.65;4.60;;;;;;;14.85;75.40;101541.59;5003995;28;20029;-72
2023/06/16 04:40:10;;;;;;;7.55;4.75;;;;;;;14.82;76.17;101542.72;4999236;28;20049;-72
2023/06/16 04:42:37;;;;;;;7.40;4.55;;;;;;;14.82;76.48;101547.13;5002083;28;20072;-72
2023/06/16 04:45:05;;;;;;;9.05;4.32;;;;;;;14.85;76.45;101541.59;4987208;28;20444;-72
2023/06/16 04:47:35;;;;;;;10.73;5.80;;;;;;;14.93;76.08;101546.78;4982082;28;20022;-72
2023/06/16 04:50:02;;;;;;;8.05;4.50;;;;;;;15.01;75.53;101535.50;4965815;28;20523;-72
2023/06/16 04:52:30;;;;;;;9.73;4.13;;;;;;;15.10;74.71;101543.16;4980173;28;20037;-72
2023/06/16 04:54:55;;;;;;;9.82;4.35;;;;;;;15.19;74.43;101536.91;4983145;28;20046;-72
2023/06/16 04:57:21;;;;;;;11.90;4.78;;;;;;;15.26;73.67;101537.09;4984175;28;20092;-72
2023/06/16 04:59:47;;;;;;;9.45;4.45;;;;;;;15.34;73.55;101539.66;4995760;28;20154;-72
2023/06/16 05:02:13;;;;;;;13.93;5.13;;;;;;;15.43;73.47;101539.63;5004049;28;20022;-72
2023/06/16 05:04:43;;;;;;;8.73;4.72;;;;;;;15.50;73.57;101535.34;4988668;28;20043;-72
2023/06/16 05:07:10;;;;;;;8.48;4.68;;;;;;;15.59;73.58;101534.31;4982532;28;21781;-72
2023/06/16 05:09:37;;;;;;;9.25;4.95;;;;;;;15.69;73.13;101541.94;4980579;28;20053;-72
2023/06/16 05:12:03;;;;;;;8.32;4.45;;;;;;;15.79;73.08;101532.13;4983283;28;20034;-73
2023/06/16 05:14:28;;;;;;;9.93;4.68;;;;;;;15.90;72.85;101528.31;4990637;28;20043;-72
2023/06/16 05:16:57;;;;;;;9.48;4.55;;;;;;;16.00;73.51;101538.53;4999831;28;20034;-72
2023/06/16 05:19:22;;;;;;;6.88;4.40;;;;;;;16.11;74.15;101545.97;5009308;28;20108;-72
2023/06/16 05:21:54;;;;;;;10.52;4.35;;;;;;;16.23;74.20;101541.94;4998412;28;20030;-72
2023/06/16 05:24:20;;;;;;;10.13;4.32;;;;;;;16.35;74.45;101540.56;5002115;28;20037;-72
2023/06/16 05:26:45;;;;;;;10.27;4.20;;;;;;;16.49;74.23;101546.81;5004690;28;20060;-72
2023/06/16 05:29:11;;;;;;;8.32;4.35;;;;;;;16.63;74.22;101540.00;4997671;28;20041;-72
2023/06/16 05:31:37;;;;;;;8.27;4.68;;;;;;;16.79;73.52;101533.78;5000515;28;20523;-72
2023/06/16 05:34:02;;;;;;;6.18;3.90;;;;;;;16.97;73.10;101535.25;4986283;28;20056;-72
2023/06/16 05:36:34;;;;;;;6.18;4.15;;;;;;;17.15;72.63;101540.16;5005738;28;20030;-72
2023/06/16 05:39:05;;;;;;;8.75;4.68;;;;;;;17.35;70.20;101535.97;4993596;28;20141;-72
2023/06/16 05:41:31;;;;;;;7.03;4.30;;;;;;;17.52;67.76;101531.34;4978127;28;20046;-72
2023/06/16 05:43:58;;;;;;;11.75;5.00;;;;;;;17.69;66.19;101540.59;4979655;28;20117;-72
2023/06/16 05:46:24;;;;;;;9.93;5.15;;;;;;;17.85;64.56;101539.59;4982848;28;20042;-72
2023/06/16 05:48:50;;;;;;;8.65;4.55;;;;;;;18.05;63.71;101534.53;4985745;28;20057;-72
2023/06/16 05:51:15;;;;;;;9.07;4.28;;;;;;;18.20;61.48;101534.47;5002775;28;20096;-72
2023/06/16 05:53:41;;;;;;;10.68;5.18;;;;;;;18.39;60.84;101542.72;5001225;28;20125;-72
2023/06/16 05:56:07;;;;;;;9.07;4.78;;;;;;;18.59;59.95;101548.09;5002838;28;20048;-72
2023/06/16 05:58:35;;;;;;;10.40;5.05;;;;;;;18.81;59.20;101547.06;4999859;28;20034;-73
2023/06/16 06:01:14;;;;;;;11.35;5.30;;;;;;;18.95;57.27;101542.75;5000427;28;20417;-72
2023/06/16 06:03:47;;;;;;;7.47;4.90;;;;;;;19.12;56.17;101537.13;4993270;28;20038;-72
2023/06/16 06:06:14;;;;;;;8.88;5.57;;;;;;;19.31;55.84;101549.59;4964597;28;20072;-72
2023/06/16 06:08:41;;;;;;;8.10;5.10;;;;;;;19.49;55.47;101543.78;4984759;28;20064;-72
2023/06/16 06:11:07;;;;;;;9.98;4.18;;;;;;;19.67;55.35;101547.69;4998333;28;20453;-73
2023/06/16 06:13:33;;;;;;;9.88;4.18;;;;;;;19.93;55.74;101555.69;4998790;28;20043;-72
2023/06/16 06:15:59;;;;;;;7.72;4.82;;;;;;;20.23;55.03;101550.84;4985890;28;20038;-73
2023/06/16 06:18:25;;;;;;;12.43;5.25;;;;;;;20.43;53.04;101550.03;4996862;28;20038;-73
2023/06/16 06:20:51;;;;;;;7.95;4.72;;;;;;;20.58;52.48;101557.72;4980791;28;20741;-72
2023/06/16 06:23:17;;;;;;;8.63;4.82;;;;;;;20.87;50.34;101556.50;4987347;28;20034;-72
2023/06/16 06:25:43;;;;;;;9.23;4.80;;;;;;;21.06;49.32;101561.91;4999058;28;20076;-72
2023/06/16 06:28:10;;;;;;;11.07;4.20;;;;;;;21.29;48.35;101564.09;4990294;28;20026;-73
2023/06/16 06:30:37;;;;;;;10.00;3.90;;;;;;;21.52;48.76;101566.25;4990269;28;20034;-73
2023/06/16 06:33:03;;;;;;;6.88;4.13;;;;;;;21.73;47.87;101573.84;4982908;28;20474;-74
2023/06/16 06:35:29;;;;;;;8.73;4.15;;;;;;;21.95;47.88;101570.91;4983315;28;20120;-72
2023/06/16 06:37:56;;;;;;;8.25;4.35;;;;;;;22.17;46.75;101574.81;4984922;28;20037;-73
2023/06/16 06:40:22;;;;;;;8.15;4.43;;;;;;;22.22;45.50;101573.34;5001594;28;20103;-72
2023/06/16 06:42:47;;;;;;;9.30;4.30;;;;;;;22.45;44.66;101567.50;5003319;28;20416;-73
2023/06/16 06:45:36;;;;;;;6.20;4.30;;;;;;;22.70;44.65;101572.78;5000335;28;20385;-73
2023/06/16 06:48:01;;;;;;;9.77;4.30;;;;;;;23.05;45.06;101580.97;5002830;28;20056;-73
2023/06/16 06:50:28;;;;;;;30.80;15.88;;;;;;;22.91;41.65;101576.84;4972244;28;20035;-73
2023/06/16 06:52:53;;;;;;;19.25;9.30;;;;;;;23.14;41.57;101576.19;4984359;28;21928;-72
2023/06/16 06:55:19;;;;;;;8.70;3.97;;;;;;;23.55;41.54;101579.97;5002540;28;20069;-73
2023/06/16 06:57:44;;;;;;;8.80;3.80;;;;;;;23.88;40.35;101576.91;5003402;28;20037;-72
2023/06/16 07:00:10;;;;;;;32.17;4.97;;;;;;;24.17;39.54;101574.44;4985959;28;20049;-72
2023/06/16 07:02:36;;;;;;;5.57;3.65;;;;;;;24.51;38.99;101574.69;4987399;28;20023;-73
2023/06/16 07:05:02;;;;;;;7.65;4.38;;;;;;;24.90;39.24;101575.03;5018172;28;20749;-73
2023/06/16 07:07:28;;;;;;;9.25;3.97;;;;;;;24.83;38.26;101579.66;5004332;28;20026;-73
2023/06/16 07:09:53;;;;;;;8.50;3.75;;;;;;;24.74;37.44;101581.06;4989782;28;20046;-73
2023/06/16 07:12:19;;;;;;;10.80;3.67;;;;;;;25.04;37.90;101580.91;4985794;28;20035;-73
2023/06/16 07:14:47;;;;;;;8.13;3.65;;;;;;;25.33;36.61;101581.75;4985453;28;20058;-73
2023/06/16 07:17:13;;;;;;;10.52;4.20;;;;;;;25.09;36.49;101577.53;4987642;28;20042;-72
2023/06/16 07:19:38;;;;;;;9.88;5.22;;;;;;;25.37;35.92;101577.63;4992716;28;20046;-73
2023/06/16 07:22:05;;;;;;;7.97;3.75;;;;;;;25.89;35.75;101576.69;4986357;28;20203;-73
2023/06/16 07:24:31;;;;;;;8.20;4.03;;;;;;;26.25;35.54;101577.28;4985132;28;20042;-73
2023/06/16 07:26:59;;;;;;;9.40;4.15;;;;;;;25.79;35.03;101581.81;4985621;28;20030;-73
2023/06/16 07:29:25;;;;;;;7.65;3.30;;;;;;;26.11;35.35;101582.13;4983218;28;20050;-73
2023/06/16 07:31:51;;;;;;;5.65;3.35;;;;;;;26.16;34.12;101578.72;4986521;28;20030;-73
2023/06/16 07:34:16;;;;;;;5.18;3.10;;;;;;;26.37;34.39;101582.50;4987651;28;20705;-73
2023/06/16 07:36:42;;;;;;;12.32;4.32;;;;;;;26.65;33.27;101584.28;4989791;28;20030;-73
2023/06/16 07:39:07;;;;;;;8.90;3.88;;;;;;;26.71;33.48;101585.16;4986878;28;21271;-73
2023/06/16 07:41:33;;;;;;;7.97;3.30;;;;;;;26.88;32.97;101574.47;4988907;28;20037;-73
2023/06/16 07:43:59;;;;;;;7.75;3.78;;;;;;;27.02;32.84;101577.59;4985041;28;20061;-73
2023/06/16 07:46:24;;;;;;;8.48;3.47;;;;;;;27.22;32.31;101579.66;4981711;28;20030;-73
2023/06/16 07:48:50;;;;;;;5.32;3.22;;;;;;;27.48;32.81;101580.78;4990455;28;20088;-73
2023/06/16 07:51:16;;;;;;;10.65;4.10;;;;;;;27.79;32.58;101578.41;5002273;28;20169;-73
2023/06/16 07:53:42;;;;;;;6.00;3.75;;;;;;;27.87;32.36;101581.41;5005379;28;20065;-74
2023/06/16 07:56:08;;;;;;;12.38;4.18;;;;;;;28.06;33.13;101579.19;5000656;28;20044;-73
2023/06/16 07:58:37;;;;;;;22.58;16.77;;;;;;;28.09;31.63;101567.25;4997750;28;20555;-73
2023/06/16 08:01:04;;;;;;;15.32;8.00;;;;;;;28.07;30.94;101572.81;4982323;28;20041;-74
2023/06/16 08:03:30;;;;;;;10.80;4.30;;;;;;;27.98;29.79;101571.69;4983036;28;20559;-74
2023/06/16 08:05:56;;;;;;;9.93;4.03;;;;;;;28.11;30.90;101562.47;4981354;28;20042;-74
2023/06/16 08:08:22;;;;;;;10.10;4.40;;;;;;;27.92;31.21;101573.50;4987694;28;20048;-74
2023/06/16 08:10:47;;;;;;;9.38;4.05;;;;;;;27.85;31.44;101566.75;4999787;28;20042;-73
2023/06/16 08:13:15;;;;;;;17.65;12.10;;;;;;;28.25;31.12;101568.16;5001963;28;20046;-74
2023/06/16 08:15:41;;;;;;;10.60;7.63;;;;;;;28.36;30.49;101559.16;5002527;28;20037;-74
2023/06/16 08:18:06;;;;;;;8.35;4.72;;;;;;;28.61;28.36;101557.72;5001744;28;20033;-74
2023/06/16 08:20:33;;;;;;;8.48;3.80;;;;;;;28.69;28.77;101557.25;4985116;28;20030;-73
2023/06/16 08:22:58;;;;;;;7.10;3.92;;;;;;;28.59;29.23;101557.19;4985660;28;20027;-74
2023/06/16 08:25:23;;;;;;;7.18;4.00;;;;;;;28.45;29.21;101557.59;5003866;28;20105;-74
2023/06/16 08:27:49;;;;;;;8.18;3.58;;;;;;;28.67;29.43;101562.84;4986016;28;20041;-74
2023/06/16 08:30:17;;;;;;;5.97;3.78;;;;;;;29.03;29.00;101552.31;4966077;28;20046;-74
2023/06/16 08:32:43;;;;;;;11.40;6.32;;;;;;;29.10;28.58;101552.88;4979549;28;20054;-74
2023/06/16 08:35:10;;;;;;;19.30;12.48;;;;;;;29.24;28.40;101553.19;4984004;28;20050;-74
2023/06/16 08:37:36;;;;;;;11.50;5.90;;;;;;;29.08;28.18;101559.50;4986140;28;20034;-74
2023/06/16 08:40:07;;;;;;;20.30;10.20;;;;;;;29.01;28.30;101557.09;4997239;28;20060;-73
2023/06/16 08:42:37;;;;;;;8.80;4.47;;;;;;;29.44;28.33;101551.63;4997682;28;20567;-74
2023/06/16 08:45:04;;;;;;;9.00;4.60;;;;;;;29.90;27.41;101551.69;4966588;28;20700;-73
2023/06/16 08:47:30;;;;;;;13.23;4.32;;;;;;;29.80;27.12;101546.31;4980588;28;20385;-73
2023/06/16 08:49:56;;;;;;;9.80;3.92;;;;;;;30.05;26.47;101542.84;5001379;28;20503;-74
2023/06/16 08:52:26;;;;;;;11.05;3.75;;;;;;;30.44;25.65;101542.25;5004537;28;20123;-74
2023/06/16 08:54:57;;;;;;;11.30;4.05;;;;;;;30.41;25.56;101534.78;5002982;28;20060;-74
2023/06/16 08:57:23;;;;;;;8.30;4.97;;;;;;;29.91;26.12;101539.13;4998136;28;20034;-74
2023/06/16 08:59:53;;;;;;;6.18;4.05;;;;;;;30.16;26.51;101547.13;5003771;28;20416;-73
2023/06/16 09:02:20;;;;;;;9.88;4.03;;;;;;;30.06;26.42;101545.25;5002580;28;20477;-74
2023/06/16 09:04:46;;;;;;;7.63;3.67;;;;;;;30.16;26.62;101540.94;5003130;28;20042;-73
2023/06/16 09:07:16;;;;;;;9.20;4.10;;;;;;;30.04;26.43;101534.00;5001889;28;20125;-73
2023/06/16 09:09:42;;;;;;;10.00;4.20;;;;;;;30.23;26.22;101544.97;5005396;28;20046;-74
2023/06/16 09:12:10;;;;;;;8.80;3.38;;;;;;;29.70;26.38;101542.56;5004211;28;20045;-74
2023/06/16 09:14:38;;;;;;;9.07;4.38;;;;;;;29.66;25.72;101543.38;5001304;28;20046;-74
2023/06/16 09:17:05;;;;;;;7.93;4.03;;;;;;;29.72;26.11;101542.28;5000643;28;20065;-73
2023/06/16 09:19:47;;;;;;;9.75;4.22;;;;;;;29.76;26.52;101542.59;5002436;28;20532;-73
2023/06/16 09:22:18;;;;;;;8.02;4.43;;;;;;;30.07;27.10;101543.38;5003122;28;20038;-73
2023/06/16 09:24:45;;;;;;;8.63;4.00;;;;;;;30.03;25.65;101548.47;5003255;28;20042;-74
2023/06/16 09:27:12;;;;;;;7.63;3.67;;;;;;;29.79;26.22;101542.06;5005284;28;20029;-74
2023/06/16 09:29:38;;;;;;;9.45;4.03;;;;;;;30.01;26.24;101539.13;4995819;28;20037;-74
2023/06/16 09:32:09;;;;;;;6.78;3.60;;;;;;;30.36;25.45;101542.81;5000702;28;20034;-74
2023/06/16 09:34:35;;;;;;;6.55;3.35;;;;;;;30.44;25.50;101540.41;4999679;28;20046;-74
2023/06/16 09:37:05;;;;;;;8.55;3.40;;;;;;;30.45;26.00;101541.97;5002485;28;20025;-73
2023/06/16 09:39:31;;;;;;;6.20;3.45;;;;;;;30.37;24.98;101529.19;4991524;28;20046;-74
2023/06/16 09:41:57;;;;;;;5.53;3.42;;;;;;;30.76;24.01;101539.22;4984416;28;20089;-74
2023/06/16 09:44:30;;;;;;;10.82;3.58;;;;;;;30.57;24.64;101538.19;4980783;28;20046;-74
2023/06/16 09:46:59;;;;;;;10.50;3.50;;;;;;;30.67;25.37;101544.31;4985391;28;20041;-74
2023/06/16 09:49:25;;;;;;;9.27;3.63;;;;;;;30.74;24.22;101536.00;4993258;28;20042;-74
2023/06/16 09:51:58;;;;;;;5.28;3.28;;;;;;;30.92;24.60;101531.94;4999363;28;20041;-74
2023/06/16 09:54:25;;;;;;;4.35;2.83;;;;;;;30.81;24.71;101536.50;4990895;28;21402;-75
2023/06/16 09:56:58;;;;;;;5.97;3.35;;;;;;;30.59;23.68;101525.34;4982704;28;20405;-74
2023/06/16 09:59:26;;;;;;;11.32;4.30;;;;;;;30.78;23.94;101522.84;4991551;28;20110;-74
2023/06/16 10:01:54;;;;;;;7.88;3.28;;;;;;;30.85;23.70;101529.53;5002584;28;20432;-74
2023/06/16 10:04:22;;;;;;;9.82;2.85;;;;;;;30.70;23.03;101520.75;4994022;28;20053;-74
2023/06/16 10:07:08;;;;;;;9.90;3.45;;;;;;;30.35;23.64;101534.00;4999239;28;21037;-74
2023/06/16 10:09:44;;;;;;;5.68;3.15;;;;;;;30.22;22.82;101532.66;4988363;28;20458;-75
2023/06/16 10:12:12;;;;;;;4.68;3.33;;;;;;;30.82;23.28;101523.94;4982103;28;20033;-75
2023/06/16 10:14:40;;;;;;;5.93;3.20;;;;;;;31.02;23.38;101520.34;4981692;28;20042;-75
2023/06/16 10:17:09;;;;;;;7.20;3.25;;;;;;;30.75;23.87;101521.53;4983851;28;20042;-76
2023/06/16 10:19:37;;;;;;;11.25;3.95;;;;;;;30.77;23.14;101518.59;4986542;28;20129;-74
2023/06/16 10:22:03;;;;;;;7.03;3.90;;;;;;;30.62;23.80;101519.47;4991053;28;20027;-75
2023/06/16 10:24:30;;;;;;;9.85;4.30;;;;;;;30.21;23.85;101516.88;4993466;28;20085;-74
2023/06/16 10:26:56;;;;;;;5.65;3.55;;;;;;;30.39;23.80;101507.50;5000864;28;20046;-74
2023/06/16 10:29:25;;;;;;;7.28;4.00;;;;;;;30.56;24.41;101515.22;5007351;28;20053;-74
2023/06/16 10:32:11;;;;;;;11.57;3.47;;;;;;;30.13;23.62;101502.19;5000350;28;21229;-75
2023/06/16 10:34:51;;;;;;;6.63;3.33;;;;;;;29.59;25.95;101513.44;5002547;28;20042;-75
2023/06/16 10:37:18;;;;;;;6.47;2.85;;;;;;;29.68;24.57;101509.16;5000783;28;20632;-74
2023/06/16 10:39:45;;;;;;;9.88;3.90;;;;;;;29.37;24.81;101516.38;4986249;28;21003;-74
2023/06/16 10:42:13;;;;;;;5.40;3.35;;;;;;;29.00;24.44;101501.31;4981957;28;20401;-75
2023/06/16 10:44:39;;;;;;;8.05;3.65;;;;;;;29.25;25.45;101505.94;4981474;28;20054;-74
2023/06/16 10:47:11;;;;;;;7.82;3.55;;;;;;;29.30;25.76;101505.94;4982693;28;20034;-74
2023/06/16 10:49:50;;;;;;;6.70;3.63;;;;;;;29.21;27.31;101502.19;4993341;28;20050;-74
2023/06/16 10:52:47;;;;;;;5.43;3.00;;;;;;;29.03;26.93;101498.91;4995611;28;20507;-75
2023/06/16 10:55:23;;;;;;;6.05;3.20;;;;;;;29.00;26.06;101502.09;4998969;28;20049;-74
2023/06/16 10:58:20;;;;;;;4.60;2.92;;;;;;;28.96;26.12;101501.03;5000898;28;20366;-74
2023/06/16 11:00:58;;;;;;;5.25;2.60;;;;;;;29.35;26.45;101499.78;4980372;28;20184;-75
2023/06/16 11:03:34;;;;;;;5.82;3.15;;;;;;;29.35;25.66;101499.78;4986475;28;20088;-74
2023/06/16 11:06:00;;;;;;;3.83;2.80;;;;;;;29.62;26.29;101491.53;5002086;28;20026;-75
2023/06/16 11:08:28;;;;;;;8.43;3.25;;;;;;;29.12;26.09;101499.19;4998674;28;20054;-75
2023/06/16 11:11:05;;;;;;;5.28;3.20;;;;;;;29.13;25.84;101495.50;4989257;28;20473;-75
2023/06/16 11:13:33;;;;;;;6.63;3.20;;;;;;;29.40;25.36;101497.94;4988900;28;20041;-76
2023/06/16 11:16:00;;;;;;;5.20;3.22;;;;;;;29.24;25.51;101504.34;5007755;28;20488;-75
2023/06/16 11:18:27;;;;;;;4.30;3.22;;;;;;;29.01;25.45;101492.22;5023580;28;20059;-74
2023/06/16 11:20:58;;;;;;;12.68;3.55;;;;;;;28.87;25.91;101492.72;5023727;28;20593;-74
2023/06/16 11:23:24;;;;;;;4.82;2.95;;;;;;;28.66;25.56;101494.53;5017724;28;20042;-74
2023/06/16 11:25:50;;;;;;;3.90;3.15;;;;;;;28.71;25.75;101496.44;5007747;28;20521;-74
2023/06/16 11:28:22;;;;;;;5.10;3.00;;;;;;;28.64;25.36;101504.66;5007149;28;20092;-75